Airfield :
LOGIN :

Register | Disclaimer

   EN    FR    IT 

 










Legend :    VFR   Marginal VFR   IFR   Intensive IFR   Very Intensive IFR
Visi :
Ceiling :
>= 8 km
>= 3000ft
5 to 8 km
1000 to 3000 ft
1500m to 5 km
500 to 1000 ft
800 to 1500m
200 to 500 ft
< 800m
< 200 ft
Symbols :   Thunderstorms  Fog  Heavy snow  Heavy precipitations  Wind > 20 kt
SIGMETs :     Misc.  Thunderstorms  Icing  Turbulence  Mountain Waves  Volcanic Ashes






- Airport Elevation : 42 ft
- IATA code : LMO


EGQS - Lossiemouth

CURRENT METAR :
  • 061850Z 21013KT 9999 FEW043 BKN230 09/04 Q1029 RMK BLU

EXPIRED METARs :
  • 061750Z 22010KT 9999 FEW042 BKN230 09/04 Q1029 RMK BLU
  • 061650Z 20007KT 9999 SCT043 BKN200 08/03 Q1030 NOSIG RMK BLU BLU

TAF TAF EGQS
Valid from the 06 at 15:00 until the 07 at 09:00 UTC


061336Z 0615/0709 24012KT 9999 BKN030
PROB40
TEMPO 0705/0709 4000 -RADZ SCT010 BKN015



MET'MAP, your aeronautical weather chart ! - Copyright ORBIFLY December 2007 - Disclaimer

ORBIFLY MET'MAP TEAM :

Programming & Development : Alexandra Zaïnal
Original concept : Baudouin d'Aumeries
Technical & hardware support : Manuel Goepfert
Assistance : Marc-Olivier Méhu




SOURCES & CREDITS :

   NOAA